createdAt,value
2022-08-07T00:02:35.181Z,16.00
2022-08-07T00:04:04.873Z,15.95
2022-08-07T00:06:33.369Z,15.93
2022-08-07T00:09:17.143Z,15.91
2022-08-07T00:11:55.252Z,15.86
2022-08-07T00:14:25.375Z,15.82
2022-08-07T00:16:57.227Z,15.81
2022-08-07T00:19:26.063Z,15.79
2022-08-07T00:22:02.283Z,15.78
2022-08-07T00:24:31.605Z,15.74
2022-08-07T00:27:06.277Z,15.70
2022-08-07T00:29:37.087Z,15.67
2022-08-07T00:32:05.813Z,15.66
2022-08-07T00:34:33.725Z,15.66
2022-08-07T00:37:02.772Z,15.61
2022-08-07T00:39:32.233Z,15.58
2022-08-07T00:42:02.235Z,15.56
2022-08-07T00:44:33.195Z,15.53
2022-08-07T00:47:03.994Z,15.50
2022-08-07T00:50:21.289Z,15.45
2022-08-07T00:52:20.285Z,15.43
2022-08-07T00:54:54.009Z,15.41
2022-08-07T00:57:25.765Z,15.40
2022-08-07T00:59:53.712Z,15.39
2022-08-07T01:02:28.467Z,15.39
2022-08-07T01:04:59.321Z,15.33
2022-08-07T01:07:28.393Z,15.31
2022-08-07T01:10:07.210Z,15.29
2022-08-07T01:12:40.082Z,15.25
2022-08-07T01:15:23.096Z,15.23
2022-08-07T01:18:09.713Z,15.21
2022-08-07T01:20:44.836Z,15.17
2022-08-07T01:23:26.877Z,15.16
2022-08-07T01:26:06.400Z,15.14
2022-08-07T01:28:33.465Z,15.11
2022-08-07T01:31:02.869Z,15.09
2022-08-07T01:33:55.886Z,15.06
2022-08-07T01:36:16.968Z,15.03
2022-08-07T01:38:43.889Z,14.98
2022-08-07T01:41:11.979Z,14.96
2022-08-07T01:43:52.561Z,14.91
2022-08-07T01:46:21.351Z,14.88
2022-08-07T01:48:48.730Z,14.86
2022-08-07T01:52:02.326Z,14.86
2022-08-07T01:54:12.300Z,14.86
2022-08-07T01:56:43.317Z,14.81
2022-08-07T01:59:22.502Z,14.73
2022-08-07T02:02:04.501Z,14.70
2022-08-07T02:04:56.322Z,14.69
2022-08-07T02:07:25.927Z,14.66
2022-08-07T02:10:14.300Z,14.57
2022-08-07T02:12:46.371Z,14.52
2022-08-07T02:15:21.005Z,14.50
2022-08-07T02:17:51.781Z,14.48
2022-08-07T02:20:23.715Z,14.47
2022-08-07T02:22:57.364Z,14.47
2022-08-07T02:26:10.225Z,14.46
2022-08-07T02:28:14.380Z,14.45
2022-08-07T02:30:52.762Z,14.43
2022-08-07T02:33:20.615Z,14.41
2022-08-07T02:36:29.775Z,14.41
2022-08-07T02:38:39.105Z,14.38
2022-08-07T02:41:21.852Z,14.36
2022-08-07T02:43:53.154Z,14.35
2022-08-07T02:46:25.697Z,14.35
2022-08-07T02:48:54.976Z,14.34
2022-08-07T02:51:41.937Z,14.35
2022-08-07T02:54:11.188Z,14.35
2022-08-07T02:56:41.358Z,14.35
2022-08-07T02:59:11.757Z,14.34
2022-08-07T03:01:40.125Z,14.33
2022-08-07T03:04:13.028Z,14.32
2022-08-07T03:06:45.829Z,14.31
2022-08-07T03:09:13.760Z,14.28
2022-08-07T03:11:51.936Z,14.22
2022-08-07T03:14:25.969Z,14.21
2022-08-07T03:16:55.150Z,14.18
2022-08-07T03:19:22.014Z,14.16
2022-08-07T03:21:51.166Z,14.14
2022-08-07T03:24:25.873Z,14.13
2022-08-07T03:26:58.106Z,14.09
2022-08-07T03:29:32.065Z,14.07
2022-08-07T03:32:04.920Z,13.97
2022-08-07T03:34:39.146Z,13.96
2022-08-07T03:37:12.189Z,13.98
2022-08-07T03:39:58.921Z,13.98
2022-08-07T03:42:27.139Z,13.96
2022-08-07T03:44:58.148Z,13.97
2022-08-07T03:47:27.971Z,13.95
2022-08-07T03:49:57.708Z,13.94
2022-08-07T03:52:28.081Z,13.94
2022-08-07T03:55:06.544Z,13.92
2022-08-07T03:59:06.700Z,13.87
2022-08-07T04:00:29.302Z,13.85
2022-08-07T04:02:59.393Z,13.86
2022-08-07T04:05:39.206Z,13.87
2022-08-07T04:08:06.796Z,13.88
2022-08-07T04:10:33.365Z,13.88
2022-08-07T04:13:07.527Z,13.87
2022-08-07T04:15:42.786Z,13.86
2022-08-07T04:18:58.537Z,13.88
2022-08-07T04:21:00.418Z,13.86
2022-08-07T04:23:43.540Z,13.86
2022-08-07T04:26:14.442Z,13.85
2022-08-07T04:28:44.185Z,13.84
2022-08-07T04:31:19.977Z,13.85
2022-08-07T04:33:47.291Z,13.87
2022-08-07T04:36:22.863Z,13.91
2022-08-07T04:38:52.782Z,13.92
2022-08-07T04:41:19.518Z,13.96
2022-08-07T04:44:10.216Z,13.98
2022-08-07T04:46:59.274Z,14.02
2022-08-07T04:49:58.043Z,14.02
2022-08-07T04:52:51.011Z,14.08
2022-08-07T04:58:14.033Z,14.12
2022-08-07T04:59:18.449Z,14.15
2022-08-07T05:01:44.662Z,14.19
2022-08-07T05:04:18.425Z,14.29
2022-08-07T05:06:51.198Z,14.70
2022-08-07T05:09:46.250Z,15.20
2022-08-07T05:12:26.513Z,15.57
2022-08-07T05:15:15.906Z,15.83
2022-08-07T05:17:56.547Z,16.11
2022-08-07T05:20:29.322Z,16.34
2022-08-07T05:23:02.053Z,16.47
2022-08-07T05:25:36.737Z,16.58
2022-08-07T05:28:23.034Z,16.81
2022-08-07T05:30:55.532Z,17.10
2022-08-07T05:33:23.653Z,17.39
2022-08-07T05:35:53.274Z,17.54
2022-08-07T05:38:59.695Z,17.82
2022-08-07T05:41:14.054Z,18.05
2022-08-07T05:43:50.248Z,18.33
2022-08-07T05:46:30.994Z,18.31
2022-08-07T05:48:59.888Z,18.28
2022-08-07T05:51:31.690Z,18.27
2022-08-07T05:54:09.459Z,18.35
2022-08-07T05:56:51.255Z,18.44
2022-08-07T05:59:19.361Z,18.54
2022-08-07T06:01:49.400Z,18.71
2022-08-07T06:04:19.098Z,18.86
2022-08-07T06:06:47.625Z,18.99
2022-08-07T06:09:23.430Z,19.15
2022-08-07T06:12:10.372Z,19.34
2022-08-07T06:14:39.457Z,19.47
2022-08-07T06:17:07.207Z,19.44
2022-08-07T06:19:57.496Z,19.47
2022-08-07T06:22:23.856Z,19.55
2022-08-07T06:24:58.507Z,19.77
2022-08-07T06:28:00.077Z,19.95
2022-08-07T06:30:36.021Z,20.11
2022-08-07T06:33:01.700Z,20.35
2022-08-07T06:35:39.195Z,20.52
2022-08-07T06:38:20.785Z,20.39
2022-08-07T06:40:50.905Z,20.59
2022-08-07T06:43:23.534Z,20.64
2022-08-07T06:45:50.798Z,20.76
2022-08-07T06:48:24.693Z,20.88
2022-08-07T06:50:54.095Z,20.97
2022-08-07T06:55:27.436Z,21.09
2022-08-07T06:56:15.374Z,21.35
2022-08-07T07:00:12.994Z,21.33
2022-08-07T07:01:42.153Z,21.56
2022-08-07T07:04:32.682Z,21.34
2022-08-07T07:07:01.818Z,21.70
2022-08-07T07:09:31.058Z,21.77
2022-08-07T07:12:21.623Z,21.93
2022-08-07T07:15:23.837Z,22.17
2022-08-07T07:17:56.520Z,22.39
2022-08-07T07:20:33.565Z,22.22
2022-08-07T07:24:09.458Z,22.34
2022-08-07T07:26:33.869Z,22.46
2022-08-07T07:29:57.526Z,22.86
2022-08-07T07:31:47.990Z,22.81
2022-08-07T07:34:22.339Z,22.73
2022-08-07T07:37:05.577Z,23.07
2022-08-07T07:39:52.263Z,23.30
2022-08-07T07:42:25.925Z,23.39
2022-08-07T07:45:05.420Z,23.77
2022-08-07T07:47:51.827Z,24.05
2022-08-07T07:50:35.717Z,24.36
2022-08-07T07:53:20.347Z,24.30
2022-08-07T07:55:57.757Z,23.98
2022-08-07T07:58:30.827Z,23.98
2022-08-07T08:02:03.562Z,24.29
2022-08-07T08:04:09.299Z,24.25
2022-08-07T08:06:50.935Z,24.67
2022-08-07T08:09:20.785Z,25.06
2022-08-07T08:12:03.006Z,25.24
2022-08-07T08:14:35.998Z,25.55
2022-08-07T08:17:55.894Z,25.79
2022-08-07T08:20:17.858Z,25.79
2022-08-07T08:23:02.090Z,25.80
2022-08-07T08:25:49.952Z,25.42
2022-08-07T08:28:38.172Z,25.44
2022-08-07T08:31:15.839Z,25.62
2022-08-07T08:33:49.052Z,26.04
2022-08-07T08:36:25.440Z,26.40
2022-08-07T08:38:56.077Z,26.10
2022-08-07T08:41:56.752Z,25.99
2022-08-07T08:44:36.250Z,26.29
2022-08-07T08:47:25.161Z,26.56
2022-08-07T08:50:28.251Z,26.83
2022-08-07T08:53:22.534Z,27.12
2022-08-07T08:55:58.604Z,26.17
2022-08-07T08:58:50.583Z,26.44
2022-08-07T09:01:40.148Z,26.74
2022-08-07T09:04:18.771Z,27.12
2022-08-07T09:06:55.430Z,27.04
2022-08-07T09:09:36.746Z,27.46
2022-08-07T09:12:30.533Z,27.68
2022-08-07T09:16:23.872Z,27.82
2022-08-07T09:18:31.693Z,28.33
2022-08-07T09:21:05.704Z,28.51
2022-08-07T09:24:31.729Z,27.55
2022-08-07T09:27:23.267Z,28.21
2022-08-07T09:30:08.391Z,28.55
2022-08-07T09:33:16.475Z,28.54
2022-08-07T09:36:18.653Z,28.86
2022-08-07T09:38:54.595Z,29.15
2022-08-07T09:41:58.318Z,29.03
2022-08-07T09:47:25.041Z,29.16
2022-08-07T09:47:55.888Z,29.23
2022-08-07T09:51:26.122Z,29.60
2022-08-07T09:54:02.534Z,29.60
2022-08-07T09:56:51.744Z,29.95
2022-08-07T10:00:14.656Z,29.68
2022-08-07T10:04:05.462Z,29.66
2022-08-07T10:06:42.361Z,29.92
2022-08-07T10:09:34.281Z,30.21
2022-08-07T10:12:34.086Z,30.46
2022-08-07T10:15:26.172Z,30.43
2022-08-07T10:18:32.885Z,30.39
2022-08-07T10:22:12.592Z,30.58
2022-08-07T10:24:49.067Z,30.82
2022-08-07T10:27:30.269Z,31.21
2022-08-07T10:30:19.739Z,31.16
2022-08-07T10:33:23.517Z,30.83
2022-08-07T10:36:58.393Z,31.00
2022-08-07T10:39:57.512Z,31.31
2022-08-07T10:42:38.846Z,31.11
2022-08-07T10:45:17.731Z,31.36
2022-08-07T10:48:23.835Z,31.55
2022-08-07T10:50:57.320Z,31.73
2022-08-07T10:53:44.308Z,31.92
2022-08-07T10:56:32.876Z,31.99
2022-08-07T10:59:23.906Z,32.16
2022-08-07T11:02:32.729Z,31.19
2022-08-07T11:05:50.433Z,31.80
2022-08-07T11:08:48.601Z,31.86
2022-08-07T11:11:27.630Z,31.57
2022-08-07T11:14:46.401Z,31.59
2022-08-07T11:17:01.844Z,30.89
2022-08-07T11:19:45.692Z,30.87
2022-08-07T11:22:33.371Z,31.47
2022-08-07T11:25:24.118Z,31.69
2022-08-07T11:28:34.374Z,31.73
2022-08-07T11:31:19.044Z,32.01
2022-08-07T11:34:00.137Z,31.97
2022-08-07T11:36:43.649Z,32.18
2022-08-07T11:40:01.320Z,31.58
2022-08-07T11:42:32.897Z,31.57
2022-08-07T11:45:20.489Z,31.58
2022-08-07T11:48:29.904Z,31.76
2022-08-07T11:51:41.684Z,32.05
2022-08-07T11:54:31.497Z,32.23
2022-08-07T11:57:18.621Z,32.57
2022-08-07T12:00:18.690Z,32.15
2022-08-07T12:03:44.853Z,32.18
2022-08-07T12:06:39.919Z,31.73
2022-08-07T12:09:27.761Z,31.10
2022-08-07T12:12:12.498Z,31.44
2022-08-07T12:14:52.675Z,31.10
2022-08-07T12:17:28.339Z,31.57
2022-08-07T12:20:20.819Z,31.53
2022-08-07T12:23:21.392Z,31.24
2022-08-07T12:26:29.323Z,31.74
2022-08-07T12:29:03.603Z,31.64
2022-08-07T12:32:01.493Z,31.67
2022-08-07T12:34:32.834Z,32.12
2022-08-07T12:37:01.594Z,31.15
2022-08-07T12:39:42.948Z,31.49
2022-08-07T12:42:27.628Z,31.62
2022-08-07T12:44:58.021Z,31.94
2022-08-07T12:47:39.730Z,32.21
2022-08-07T12:50:38.864Z,32.16
2022-08-07T12:54:36.836Z,32.43
2022-08-07T12:56:40.001Z,32.43
2022-08-07T12:59:08.693Z,32.17
2022-08-07T13:02:17.161Z,31.91
2022-08-07T13:05:14.861Z,32.15
2022-08-07T13:08:18.545Z,32.00
2022-08-07T13:11:03.104Z,32.47
2022-08-07T13:13:57.354Z,32.98
2022-08-07T13:16:30.543Z,32.63
2022-08-07T13:19:04.353Z,32.55
2022-08-07T13:21:57.448Z,31.80
2022-08-07T13:25:00.077Z,31.76
2022-08-07T13:28:11.505Z,32.27
2022-08-07T13:30:43.466Z,32.47
2022-08-07T13:34:14.424Z,32.53
2022-08-07T13:36:18.702Z,32.51
2022-08-07T13:38:58.703Z,31.79
2022-08-07T13:41:48.114Z,31.99
2022-08-07T13:44:26.110Z,32.16
2022-08-07T13:46:59.514Z,31.79
2022-08-07T13:50:36.633Z,32.10
2022-08-07T13:52:32.638Z,32.17
2022-08-07T13:55:25.462Z,32.11
2022-08-07T13:58:27.683Z,31.78
2022-08-07T14:01:08.805Z,31.75
2022-08-07T14:04:05.103Z,31.91
2022-08-07T14:06:35.427Z,31.59
2022-08-07T14:09:04.763Z,31.71
2022-08-07T14:12:00.084Z,31.48
2022-08-07T14:14:31.243Z,31.52
2022-08-07T14:17:32.296Z,31.20
2022-08-07T14:20:43.188Z,31.13
2022-08-07T14:23:00.600Z,30.99
2022-08-07T14:25:39.323Z,30.98
2022-08-07T14:28:13.576Z,31.09
2022-08-07T14:30:47.042Z,30.94
2022-08-07T14:33:22.432Z,29.97
2022-08-07T14:35:55.706Z,30.11
2022-08-07T14:38:31.341Z,29.21
2022-08-07T14:41:03.854Z,29.60
2022-08-07T14:43:55.355Z,29.66
2022-08-07T14:46:31.484Z,29.47
2022-08-07T14:49:17.199Z,29.84
2022-08-07T14:52:04.819Z,29.70
2022-08-07T14:54:41.918Z,29.76
2022-08-07T14:57:19.560Z,29.94
2022-08-07T15:00:06.061Z,29.63
2022-08-07T15:02:35.058Z,29.25
2022-08-07T15:05:04.620Z,29.19
2022-08-07T15:07:47.647Z,29.43
2022-08-07T15:10:26.434Z,29.38
2022-08-07T15:13:12.274Z,29.14
2022-08-07T15:18:35.958Z,28.69
2022-08-07T15:21:58.686Z,28.67
2022-08-07T15:25:15.569Z,28.71
2022-08-07T15:27:08.106Z,28.51
2022-08-07T15:30:04.386Z,28.46
2022-08-07T15:38:29.918Z,27.98
2022-08-07T15:43:59.472Z,27.73
2022-08-07T15:46:39.397Z,27.69
2022-08-07T15:49:25.365Z,27.43
2022-08-07T15:52:13.872Z,27.13
2022-08-07T15:54:44.254Z,27.15
2022-08-07T15:57:28.124Z,26.93
2022-08-07T16:00:07.848Z,26.73
2022-08-07T16:02:47.590Z,26.78
2022-08-07T16:05:20.278Z,26.70
2022-08-07T16:08:31.867Z,26.70
2022-08-07T16:10:47.148Z,26.67
2022-08-07T16:13:58.456Z,26.78
2022-08-07T16:16:49.338Z,26.62
2022-08-07T16:20:00.143Z,26.67
2022-08-07T16:22:55.826Z,26.40
2022-08-07T16:25:55.797Z,26.29
2022-08-07T16:29:18.458Z,26.13
2022-08-07T16:32:03.823Z,26.03
2022-08-07T16:34:55.392Z,26.06
2022-08-07T16:38:03.357Z,26.10
2022-08-07T16:41:02.400Z,25.88
2022-08-07T16:44:47.212Z,25.90
2022-08-07T16:47:45.236Z,25.76
2022-08-07T16:50:20.778Z,25.90
2022-08-07T16:54:01.623Z,25.85
2022-08-07T16:56:18.673Z,25.70
2022-08-07T16:59:17.414Z,25.57
2022-08-07T17:02:51.235Z,25.42
2022-08-07T17:06:26.715Z,25.50
2022-08-07T17:09:09.704Z,25.37
2022-08-07T17:12:01.273Z,25.41
2022-08-07T17:14:32.167Z,25.38
2022-08-07T17:17:04.647Z,25.27
2022-08-07T17:20:02.380Z,25.19
2022-08-07T17:22:37.659Z,25.16
2022-08-07T17:25:12.877Z,24.98
2022-08-07T17:27:51.116Z,24.92
2022-08-07T17:30:20.108Z,24.80
2022-08-07T17:34:08.326Z,24.63
2022-08-07T17:36:20.494Z,24.47
2022-08-07T17:39:15.428Z,24.63
2022-08-07T17:42:04.632Z,24.51
2022-08-07T17:44:49.916Z,24.61
2022-08-07T17:47:44.836Z,24.44
2022-08-07T17:50:32.283Z,24.46
2022-08-07T17:54:01.419Z,24.36
2022-08-07T17:56:31.364Z,24.28
2022-08-07T17:59:10.238Z,24.24
2022-08-07T18:01:56.635Z,24.11
2022-08-07T18:04:36.963Z,23.93
2022-08-07T18:07:20.521Z,23.98
2022-08-07T18:10:07.087Z,23.86
2022-08-07T18:13:01.369Z,23.72
2022-08-07T18:15:41.102Z,23.71
2022-08-07T18:18:46.500Z,23.61
2022-08-07T18:21:38.205Z,23.66
2022-08-07T18:23:58.521Z,23.63
2022-08-07T18:26:41.294Z,23.60
2022-08-07T18:30:04.612Z,23.62
2022-08-07T18:32:22.204Z,23.58
2022-08-07T18:35:09.430Z,23.53
2022-08-07T18:38:55.628Z,23.48
2022-08-07T18:41:16.842Z,23.40
2022-08-07T18:44:09.102Z,23.28
2022-08-07T18:46:51.188Z,23.26
2022-08-07T18:50:30.073Z,23.15
2022-08-07T18:52:53.581Z,23.12
2022-08-07T18:55:55.752Z,23.06
2022-08-07T18:58:42.439Z,22.99
2022-08-07T19:02:18.107Z,22.85
2022-08-07T19:04:57.627Z,22.73
2022-08-07T19:07:51.508Z,22.65
2022-08-07T19:10:31.460Z,22.46
2022-08-07T19:13:11.443Z,22.35
2022-08-07T19:16:05.330Z,22.26
2022-08-07T19:19:03.201Z,22.18
2022-08-07T19:22:05.182Z,22.11
2022-08-07T19:24:46.041Z,21.78
2022-08-07T19:28:30.460Z,21.67
2022-08-07T19:31:06.041Z,21.44
2022-08-07T19:33:12.704Z,21.35
2022-08-07T19:35:41.409Z,21.29
2022-08-07T19:38:15.750Z,21.22
2022-08-07T19:40:49.934Z,21.16
2022-08-07T19:43:49.218Z,21.13
2022-08-07T19:46:26.356Z,21.14
2022-08-07T19:49:02.908Z,21.15
2022-08-07T19:51:51.129Z,21.00
2022-08-07T19:54:33.746Z,20.89
2022-08-07T19:58:04.557Z,20.83
2022-08-07T20:00:09.008Z,20.78
2022-08-07T20:02:52.048Z,20.76
2022-08-07T20:05:28.094Z,20.73
2022-08-07T20:08:00.738Z,20.69
2022-08-07T20:10:36.866Z,20.64
2022-08-07T20:13:27.139Z,20.55
2022-08-07T20:16:01.035Z,20.48
2022-08-07T20:18:33.522Z,20.42
2022-08-07T20:21:02.201Z,20.30
2022-08-07T20:23:41.613Z,20.29
2022-08-07T20:26:10.972Z,20.24
2022-08-07T20:28:41.299Z,20.19
2022-08-07T20:31:21.011Z,20.16
2022-08-07T20:33:57.302Z,20.12
2022-08-07T20:36:27.140Z,20.08
2022-08-07T20:39:00.736Z,20.07
2022-08-07T20:41:48.809Z,20.01
2022-08-07T20:44:16.165Z,20.00
2022-08-07T20:46:46.734Z,19.93
2022-08-07T20:50:01.249Z,19.91
2022-08-07T20:52:29.987Z,19.85
2022-08-07T20:55:09.863Z,19.84
2022-08-07T20:57:47.498Z,19.74
2022-08-07T21:00:42.654Z,19.70
2022-08-07T21:03:15.612Z,19.65
2022-08-07T21:05:56.024Z,19.60
2022-08-07T21:08:37.735Z,19.51
2022-08-07T21:11:10.837Z,19.47
2022-08-07T21:14:16.925Z,19.46
2022-08-07T21:16:56.171Z,19.40
2022-08-07T21:19:32.287Z,19.36
2022-08-07T21:22:19.019Z,19.33
2022-08-07T21:25:13.562Z,19.27
2022-08-07T21:28:07.823Z,19.24
2022-08-07T21:30:49.690Z,19.24
2022-08-07T21:33:38.336Z,19.31
2022-08-07T21:36:32.146Z,19.28
2022-08-07T21:39:48.230Z,19.24
2022-08-07T21:42:42.915Z,19.22
2022-08-07T21:46:07.868Z,19.22
2022-08-07T21:48:56.499Z,19.18
2022-08-07T21:51:54.552Z,19.10
2022-08-07T21:54:33.875Z,19.04
2022-08-07T21:57:31.098Z,18.81
2022-08-07T22:00:22.456Z,18.77
2022-08-07T22:03:08.764Z,18.73
2022-08-07T22:06:32.341Z,18.66
2022-08-07T22:09:07.014Z,18.61
2022-08-07T22:11:53.036Z,18.54
2022-08-07T22:14:36.247Z,18.50
2022-08-07T22:17:04.990Z,18.49
2022-08-07T22:19:43.841Z,18.49
2022-08-07T22:22:27.903Z,18.50
2022-08-07T22:25:02.784Z,18.50
2022-08-07T22:28:20.215Z,18.53
2022-08-07T22:30:56.930Z,18.50
2022-08-07T22:33:56.693Z,18.48
2022-08-07T22:36:47.468Z,18.43
2022-08-07T22:39:23.294Z,18.41
2022-08-07T22:42:10.604Z,18.41
2022-08-07T22:44:58.699Z,18.39
2022-08-07T22:47:52.340Z,18.34
2022-08-07T22:50:39.734Z,18.28
2022-08-07T22:54:06.775Z,18.23
2022-08-07T22:56:34.498Z,18.19
2022-08-07T22:59:25.788Z,18.15
2022-08-07T23:02:30.959Z,18.15
2022-08-07T23:06:06.896Z,18.12
2022-08-07T23:08:46.089Z,18.09
2022-08-07T23:11:44.177Z,18.04
2022-08-07T23:14:47.386Z,18.02
2022-08-07T23:17:45.125Z,17.96
2022-08-07T23:20:40.735Z,17.92
2022-08-07T23:23:14.768Z,17.89
2022-08-07T23:26:16.298Z,17.84
2022-08-07T23:29:17.150Z,17.83
2022-08-07T23:34:21.734Z,17.79
2022-08-07T23:35:12.199Z,17.77
2022-08-07T23:38:01.848Z,17.73
2022-08-07T23:40:41.851Z,17.69
2022-08-07T23:43:38.226Z,17.65
2022-08-07T23:46:27.486Z,17.62
2022-08-07T23:49:03.098Z,17.59
2022-08-07T23:52:59.893Z,17.57
2022-08-07T23:54:53.762Z,17.55
2022-08-07T23:57:55.957Z,17.52
